createdAt,value
2023-03-02T00:02:01.946Z,13.77
2023-03-02T00:04:33.563Z,14.33
2023-03-02T00:07:07.808Z,13.77
2023-03-02T00:09:35.569Z,14.30
2023-03-02T00:12:02.791Z,14.27
2023-03-02T00:14:29.253Z,14.23
2023-03-02T00:16:55.698Z,14.23
2023-03-02T00:19:22.225Z,14.90
2023-03-02T00:21:48.708Z,14.30
2023-03-02T00:24:15.682Z,14.13
2023-03-02T00:26:42.271Z,12.93
2023-03-02T00:29:09.082Z,14.07
2023-03-02T00:31:35.650Z,13.77
2023-03-02T00:34:02.147Z,14.80
2023-03-02T00:36:28.747Z,14.13
2023-03-02T00:38:55.582Z,14.43
2023-03-02T00:41:22.053Z,14.70
2023-03-02T00:43:49.920Z,15.60
2023-03-02T00:46:20.109Z,14.30
2023-03-02T00:48:46.928Z,14.13
2023-03-02T00:51:14.985Z,15.00
2023-03-02T00:53:41.976Z,15.37
2023-03-02T00:56:09.786Z,14.60
2023-03-02T00:58:40.435Z,15.60
2023-03-02T01:01:11.030Z,15.03
2023-03-02T01:03:41.138Z,15.20
2023-03-02T01:06:15.595Z,15.03
2023-03-02T01:08:42.139Z,14.97
2023-03-02T01:11:17.170Z,14.47
2023-03-02T01:13:44.024Z,15.00
2023-03-02T01:16:11.899Z,16.10
2023-03-02T01:18:39.660Z,14.90
2023-03-02T01:21:10.542Z,15.07
2023-03-02T01:23:37.333Z,14.40
2023-03-02T01:26:04.159Z,14.80
2023-03-02T01:28:30.673Z,14.77
2023-03-02T01:30:58.179Z,15.70
2023-03-02T01:33:24.706Z,14.73
2023-03-02T01:35:51.282Z,16.20
2023-03-02T01:38:17.909Z,15.73
2023-03-02T01:40:44.441Z,15.43
2023-03-02T01:43:13.996Z,15.87
2023-03-02T01:45:46.623Z,15.87
2023-03-02T01:48:37.301Z,14.90
2023-03-02T01:51:06.742Z,15.90
2023-03-02T01:53:35.873Z,14.83
2023-03-02T01:56:05.048Z,16.47
2023-03-02T01:58:36.453Z,16.13
2023-03-02T02:01:03.930Z,16.47
2023-03-02T02:03:31.162Z,15.63
2023-03-02T02:06:06.402Z,15.93
2023-03-02T02:08:33.756Z,16.60
2023-03-02T02:11:00.696Z,16.17
2023-03-02T02:13:27.182Z,16.30
2023-03-02T02:15:53.768Z,16.23
2023-03-02T02:18:20.325Z,16.20
2023-03-02T02:20:48.992Z,17.17
2023-03-02T02:23:30.121Z,16.53
2023-03-02T02:26:46.552Z,16.47
2023-03-02T02:29:22.536Z,15.87
2023-03-02T02:32:03.681Z,16.53
2023-03-02T02:34:45.057Z,16.23
2023-03-02T02:37:22.090Z,16.00
2023-03-02T02:39:50.223Z,15.87
2023-03-02T02:42:34.881Z,16.50
2023-03-02T02:45:06.414Z,17.00
2023-03-02T02:47:34.052Z,16.27
2023-03-02T02:50:00.879Z,16.27
2023-03-02T02:52:29.007Z,16.30
2023-03-02T02:54:57.717Z,16.17
2023-03-02T02:57:28.629Z,16.43
2023-03-02T03:00:00.352Z,16.07
2023-03-02T03:02:30.800Z,16.37
2023-03-02T03:05:03.292Z,17.60
2023-03-02T03:07:32.836Z,16.90
2023-03-02T03:10:17.708Z,16.63
2023-03-02T03:12:44.665Z,15.67
2023-03-02T03:15:13.592Z,16.33
2023-03-02T03:17:40.841Z,16.93
2023-03-02T03:20:09.156Z,16.57
2023-03-02T03:22:39.369Z,16.27
2023-03-02T03:25:08.733Z,15.90
2023-03-02T03:27:35.422Z,16.40
2023-03-02T03:30:04.144Z,16.27
2023-03-02T03:32:35.410Z,15.67
2023-03-02T03:35:03.535Z,16.10
2023-03-02T03:37:32.208Z,16.43
2023-03-02T03:39:59.103Z,16.30
2023-03-02T03:42:26.406Z,17.30
2023-03-02T03:44:54.732Z,15.83
2023-03-02T03:47:21.923Z,16.10
2023-03-02T03:49:49.958Z,16.00
2023-03-02T03:52:16.868Z,14.77
2023-03-02T03:54:44.256Z,15.57
2023-03-02T03:57:12.104Z,16.27
2023-03-02T03:59:39.218Z,15.90
2023-03-02T04:02:06.326Z,15.17
2023-03-02T04:04:39.226Z,16.90
2023-03-02T04:07:14.753Z,16.33
2023-03-02T04:09:42.507Z,14.37
2023-03-02T04:12:11.624Z,16.10
2023-03-02T04:14:40.871Z,15.47
2023-03-02T04:17:08.430Z,15.50
2023-03-02T04:19:39.375Z,15.03
2023-03-02T04:22:06.301Z,15.43
2023-03-02T04:24:33.429Z,15.50
2023-03-02T04:27:02.446Z,15.70
2023-03-02T04:29:32.289Z,15.23
2023-03-02T04:32:00.166Z,16.23
2023-03-02T04:34:28.070Z,15.57
2023-03-02T04:36:55.442Z,16.17
2023-03-02T04:39:22.352Z,15.60
2023-03-02T04:41:51.381Z,16.53
2023-03-02T04:44:19.251Z,16.20
2023-03-02T04:46:46.715Z,16.93
2023-03-02T04:49:19.067Z,16.13
2023-03-02T04:51:48.020Z,16.10
2023-03-02T04:54:26.161Z,15.40
2023-03-02T04:56:53.368Z,15.60
2023-03-02T04:59:23.980Z,15.17
2023-03-02T05:01:50.555Z,16.30
2023-03-02T05:04:17.177Z,16.80
2023-03-02T05:06:43.766Z,16.47
2023-03-02T05:09:10.739Z,15.13
2023-03-02T05:11:37.716Z,16.50
2023-03-02T05:14:07.363Z,16.60
2023-03-02T05:16:36.722Z,16.23
2023-03-02T05:19:06.008Z,16.37
2023-03-02T05:21:32.781Z,16.87
2023-03-02T05:23:59.581Z,16.30
2023-03-02T05:26:26.055Z,16.60
2023-03-02T05:28:54.080Z,15.83
2023-03-02T05:31:41.653Z,15.80
2023-03-02T05:34:10.570Z,15.93
2023-03-02T05:36:38.032Z,16.13
2023-03-02T05:39:06.145Z,15.93
2023-03-02T05:41:33.088Z,16.77
2023-03-02T05:43:59.884Z,17.60
2023-03-02T05:46:27.272Z,15.93
2023-03-02T05:48:53.781Z,15.90
2023-03-02T05:51:20.368Z,16.20
2023-03-02T05:53:47.062Z,15.83
2023-03-02T05:56:13.582Z,16.63
2023-03-02T05:58:40.046Z,17.30
2023-03-02T06:01:13.561Z,17.73
2023-03-02T06:03:42.111Z,17.20
2023-03-02T06:06:08.630Z,17.07
2023-03-02T06:08:35.241Z,15.53
2023-03-02T06:11:01.719Z,16.00
2023-03-02T06:13:28.381Z,17.37
2023-03-02T06:15:54.900Z,15.67
2023-03-02T06:18:21.769Z,16.20
2023-03-02T06:20:50.489Z,15.17
2023-03-02T06:23:17.037Z,15.57
2023-03-02T06:25:48.513Z,15.20
2023-03-02T06:28:16.691Z,15.37
2023-03-02T06:30:43.162Z,15.13
2023-03-02T06:33:09.727Z,14.10
2023-03-02T06:35:36.414Z,15.03
2023-03-02T06:38:03.020Z,15.13
2023-03-02T06:40:30.176Z,15.00
2023-03-02T06:42:56.744Z,15.03
2023-03-02T06:45:23.245Z,15.00
2023-03-02T06:47:49.743Z,14.27
2023-03-02T06:50:16.357Z,15.10
2023-03-02T06:52:42.804Z,14.87
2023-03-02T06:55:09.570Z,13.33
2023-03-02T06:57:36.221Z,15.07
2023-03-02T07:00:09.713Z,14.70
2023-03-02T07:02:37.295Z,13.60
2023-03-02T07:05:04.371Z,14.10
2023-03-02T07:07:30.905Z,14.13
2023-03-02T07:09:57.357Z,14.90
2023-03-02T07:12:24.836Z,13.80
2023-03-02T07:14:51.340Z,14.40
2023-03-02T07:17:17.840Z,13.33
2023-03-02T07:19:44.311Z,15.87
2023-03-02T07:22:12.383Z,15.47
2023-03-02T07:24:39.020Z,14.53
2023-03-02T07:27:05.578Z,13.50
2023-03-02T07:29:32.094Z,13.50
2023-03-02T07:32:01.304Z,14.27
2023-03-02T07:34:27.984Z,13.40
2023-03-02T07:36:54.728Z,13.47
2023-03-02T07:39:21.301Z,13.13
2023-03-02T07:41:47.982Z,13.57
2023-03-02T07:44:14.933Z,13.40
2023-03-02T07:46:41.535Z,13.10
2023-03-02T07:49:08.119Z,12.93
2023-03-02T07:51:34.730Z,13.17
2023-03-02T07:54:02.883Z,14.20
2023-03-02T07:56:29.586Z,13.23
2023-03-02T07:58:56.290Z,13.67
2023-03-02T08:01:23.133Z,13.33
2023-03-02T08:03:49.798Z,13.23
2023-03-02T08:06:16.530Z,13.23
2023-03-02T08:08:43.114Z,14.40
2023-03-02T08:11:12.311Z,13.70
2023-03-02T08:13:39.097Z,14.67
2023-03-02T08:16:07.967Z,13.67
2023-03-02T08:18:35.638Z,14.37
2023-03-02T08:21:02.397Z,13.83
2023-03-02T08:23:28.936Z,13.73
2023-03-02T08:25:55.622Z,14.10
2023-03-02T08:28:23.233Z,13.77
2023-03-02T08:30:59.566Z,13.80
2023-03-02T08:33:27.332Z,13.97
2023-03-02T08:36:01.674Z,13.47
2023-03-02T08:38:29.168Z,13.83
2023-03-02T08:40:55.954Z,14.40
2023-03-02T08:43:23.967Z,13.57
2023-03-02T08:45:55.694Z,13.50
2023-03-02T08:48:22.486Z,14.00
2023-03-02T08:50:57.762Z,13.70
2023-03-02T08:53:24.647Z,13.77
2023-03-02T08:55:52.092Z,13.37
2023-03-02T08:58:19.041Z,12.77
2023-03-02T09:00:45.704Z,14.00
2023-03-02T09:03:12.499Z,13.33
2023-03-02T09:05:39.032Z,13.93
2023-03-02T09:08:05.877Z,14.73
2023-03-02T09:10:32.360Z,13.50
2023-03-02T09:12:58.825Z,14.50
2023-03-02T09:15:25.347Z,14.23
2023-03-02T09:17:51.838Z,13.83
2023-03-02T09:20:18.335Z,13.80
2023-03-02T09:22:48.589Z,13.63
2023-03-02T09:25:15.185Z,15.47
2023-03-02T09:27:41.718Z,14.90
2023-03-02T09:30:09.319Z,13.43
2023-03-02T09:32:35.884Z,14.03
2023-03-02T09:35:03.000Z,14.00
2023-03-02T09:37:29.634Z,14.53
2023-03-02T09:39:56.483Z,15.20
2023-03-02T09:42:46.751Z,14.87
2023-03-02T09:45:16.243Z,14.90
2023-03-02T09:47:56.029Z,15.43
2023-03-02T09:50:31.457Z,15.17
2023-03-02T09:53:16.468Z,15.00
2023-03-02T09:55:46.213Z,14.73
2023-03-02T09:58:19.710Z,14.33
2023-03-02T10:00:47.075Z,14.80
2023-03-02T10:03:18.978Z,15.07
2023-03-02T10:05:48.668Z,14.40
2023-03-02T10:08:20.643Z,14.33
2023-03-02T10:11:16.118Z,14.53
2023-03-02T10:13:55.744Z,15.47
2023-03-02T10:16:48.396Z,14.43
2023-03-02T10:19:44.143Z,14.40
2023-03-02T10:22:32.660Z,15.13
2023-03-02T10:25:16.561Z,14.63
2023-03-02T10:27:49.595Z,14.13
2023-03-02T10:30:29.796Z,13.43
2023-03-02T10:33:11.887Z,13.80
2023-03-02T10:35:44.293Z,13.97
2023-03-02T10:38:19.386Z,13.70
2023-03-02T10:40:58.226Z,13.57
2023-03-02T10:43:31.908Z,13.60
2023-03-02T10:46:09.366Z,13.23
2023-03-02T10:49:01.221Z,12.57
2023-03-02T10:51:30.138Z,11.57
2023-03-02T10:54:23.461Z,12.60
2023-03-02T10:56:53.372Z,12.27
2023-03-02T10:59:28.984Z,12.70
2023-03-02T11:02:03.728Z,11.50
2023-03-02T11:04:31.065Z,12.47
2023-03-02T11:07:13.043Z,12.57
2023-03-02T11:09:39.533Z,12.47
2023-03-02T11:12:15.432Z,13.47
2023-03-02T11:14:42.662Z,14.27
2023-03-02T11:17:34.054Z,13.47
2023-03-02T11:20:02.517Z,13.10
2023-03-02T11:22:51.930Z,13.80
2023-03-02T11:25:39.157Z,13.13
2023-03-02T11:28:17.159Z,13.77
2023-03-02T11:30:49.559Z,14.13
2023-03-02T11:33:29.764Z,13.70
2023-03-02T11:36:03.887Z,13.27
2023-03-02T11:38:41.412Z,13.20
2023-03-02T11:41:30.466Z,13.17
2023-03-02T11:44:01.394Z,13.90
2023-03-02T11:46:30.820Z,13.27
2023-03-02T11:49:01.464Z,12.77
2023-03-02T11:51:33.124Z,12.70
2023-03-02T11:54:38.229Z,12.47
2023-03-02T11:57:04.778Z,11.77
2023-03-02T11:59:33.876Z,12.70
2023-03-02T12:02:01.477Z,12.50
2023-03-02T12:04:34.881Z,12.20
2023-03-02T12:07:23.482Z,12.00
2023-03-02T12:09:59.164Z,11.00
2023-03-02T12:12:25.623Z,10.97
2023-03-02T12:14:52.708Z,11.40
2023-03-02T12:17:32.510Z,11.17
2023-03-02T12:20:10.427Z,11.07
2023-03-02T12:22:37.710Z,11.03
2023-03-02T12:25:07.620Z,11.10
2023-03-02T12:27:37.389Z,10.13
2023-03-02T12:30:31.504Z,10.10
2023-03-02T12:33:20.132Z,10.47
2023-03-02T12:35:50.119Z,10.27
2023-03-02T12:38:29.064Z,10.20
2023-03-02T12:41:25.468Z,10.93
2023-03-02T12:44:16.740Z,9.97
2023-03-02T12:46:48.666Z,10.33
2023-03-02T12:49:52.994Z,9.87
2023-03-02T12:52:33.490Z,9.70
2023-03-02T12:55:08.952Z,9.20
2023-03-02T12:57:46.506Z,10.93
2023-03-02T13:00:17.180Z,10.70
2023-03-02T13:02:49.950Z,10.50
2023-03-02T13:05:29.229Z,11.17
2023-03-02T13:08:28.666Z,10.57
2023-03-02T13:10:57.814Z,10.27
2023-03-02T13:13:43.523Z,9.87
2023-03-02T13:16:18.810Z,10.13
2023-03-02T13:18:45.901Z,10.77
2023-03-02T13:21:14.806Z,9.77
2023-03-02T13:23:47.722Z,10.17
2023-03-02T13:26:33.583Z,10.80
2023-03-02T13:29:21.094Z,10.77
2023-03-02T13:31:47.753Z,10.67
2023-03-02T13:34:26.353Z,10.57
2023-03-02T13:36:53.313Z,10.57
2023-03-02T13:39:23.005Z,11.03
2023-03-02T13:41:57.640Z,10.77
2023-03-02T13:44:33.199Z,11.10
2023-03-02T13:47:00.534Z,11.37
2023-03-02T13:49:32.543Z,10.83
2023-03-02T13:52:05.493Z,10.77
2023-03-02T13:54:36.015Z,10.40
2023-03-02T13:57:05.194Z,10.30
2023-03-02T13:59:34.751Z,10.07
2023-03-02T14:02:01.223Z,10.80
2023-03-02T14:04:27.845Z,10.73
2023-03-02T14:06:55.045Z,10.93
2023-03-02T14:09:21.874Z,11.47
2023-03-02T14:11:52.047Z,10.70
2023-03-02T14:14:22.607Z,10.97
2023-03-02T14:16:50.145Z,10.90
2023-03-02T14:19:18.406Z,10.53
2023-03-02T14:21:46.544Z,10.37
2023-03-02T14:24:13.377Z,10.77
2023-03-02T14:26:43.973Z,11.50
2023-03-02T14:29:13.460Z,10.87
2023-03-02T14:31:39.902Z,9.93
2023-03-02T14:34:06.453Z,10.10
2023-03-02T14:36:34.356Z,10.13
2023-03-02T14:39:04.296Z,10.10
2023-03-02T14:41:34.313Z,10.70
2023-03-02T14:44:04.904Z,10.07
2023-03-02T14:46:31.388Z,9.67
2023-03-02T14:48:57.850Z,10.57
2023-03-02T14:51:26.631Z,9.87
2023-03-02T14:53:55.392Z,9.60
2023-03-02T14:56:22.955Z,10.17
2023-03-02T14:58:51.680Z,9.37
2023-03-02T15:01:23.933Z,9.93
2023-03-02T15:03:50.592Z,10.03
2023-03-02T15:06:27.886Z,9.83
2023-03-02T15:08:56.470Z,9.13
2023-03-02T15:11:23.347Z,9.90
2023-03-02T15:13:49.838Z,9.30
2023-03-02T15:16:16.833Z,9.10
2023-03-02T15:18:43.667Z,8.67
2023-03-02T15:21:17.452Z,8.90
2023-03-02T15:23:44.552Z,9.37
2023-03-02T15:26:12.488Z,9.53
2023-03-02T15:28:39.521Z,9.33
2023-03-02T15:31:07.889Z,9.47
2023-03-02T15:33:34.469Z,9.57
2023-03-02T15:36:01.043Z,9.80
2023-03-02T15:38:27.725Z,8.93
2023-03-02T15:40:54.215Z,8.63
2023-03-02T15:43:20.696Z,9.03
2023-03-02T15:45:47.306Z,9.07
2023-03-02T15:48:14.440Z,8.17
2023-03-02T15:50:40.932Z,9.73
2023-03-02T15:53:07.475Z,8.30
2023-03-02T15:55:33.971Z,8.97
2023-03-02T15:58:00.570Z,9.27
2023-03-02T16:00:27.307Z,9.00
2023-03-02T16:02:53.765Z,9.13
2023-03-02T16:05:20.316Z,8.80
2023-03-02T16:07:46.803Z,8.43
2023-03-02T16:10:16.366Z,8.70
2023-03-02T16:12:43.474Z,9.00
2023-03-02T16:15:10.409Z,8.13
2023-03-02T16:17:36.851Z,9.43
2023-03-02T16:20:03.890Z,8.60
2023-03-02T16:22:30.396Z,9.03
2023-03-02T16:24:56.836Z,9.20
2023-03-02T16:27:23.291Z,8.57
2023-03-02T16:29:49.732Z,8.53
2023-03-02T16:32:16.236Z,9.30
2023-03-02T16:34:42.743Z,8.97
2023-03-02T16:37:09.264Z,8.90
2023-03-02T16:39:36.271Z,8.87
2023-03-02T16:42:02.792Z,8.70
2023-03-02T16:44:29.253Z,9.20
2023-03-02T16:46:57.343Z,7.93
2023-03-02T16:49:24.075Z,8.60
2023-03-02T16:51:50.545Z,8.13
2023-03-02T16:54:17.211Z,9.00
2023-03-02T16:56:47.113Z,9.27
2023-03-02T16:59:13.792Z,9.40
2023-03-02T17:01:40.409Z,9.83
2023-03-02T17:04:07.093Z,11.17
2023-03-02T17:06:33.630Z,12.83
2023-03-02T17:09:00.257Z,15.43
2023-03-02T17:11:26.956Z,20.13
2023-03-02T17:13:53.670Z,17.33
2023-03-02T17:16:20.727Z,16.73
2023-03-02T17:18:47.411Z,13.93
2023-03-02T17:21:16.148Z,14.00
2023-03-02T17:23:42.832Z,12.47
2023-03-02T17:26:09.327Z,11.80
2023-03-02T17:28:35.879Z,11.80
2023-03-02T17:31:04.332Z,11.73
2023-03-02T17:33:32.130Z,12.50
2023-03-02T17:35:58.611Z,13.67
2023-03-02T17:38:25.052Z,12.93
2023-03-02T17:40:51.528Z,12.77
2023-03-02T17:43:17.993Z,13.33
2023-03-02T17:45:44.580Z,13.80
2023-03-02T17:48:11.204Z,15.27
2023-03-02T17:50:37.909Z,14.07
2023-03-02T17:53:04.414Z,13.23
2023-03-02T17:55:31.061Z,13.10
2023-03-02T17:57:57.922Z,11.60
2023-03-02T18:00:24.883Z,13.30
2023-03-02T18:02:52.199Z,12.23
2023-03-02T18:05:18.725Z,12.43
2023-03-02T18:07:45.225Z,12.27
2023-03-02T18:10:12.670Z,15.67
2023-03-02T18:12:39.691Z,14.47
2023-03-02T18:15:06.986Z,14.60
2023-03-02T18:17:33.484Z,14.83
2023-03-02T18:19:59.946Z,14.63
2023-03-02T18:22:26.466Z,15.47
2023-03-02T18:24:53.073Z,15.13
2023-03-02T18:27:19.886Z,16.13
2023-03-02T18:29:46.457Z,18.00
2023-03-02T18:32:13.304Z,17.63
2023-03-02T18:34:40.045Z,17.00
2023-03-02T18:37:07.040Z,16.90
2023-03-02T18:39:33.514Z,16.77
2023-03-02T18:42:00.174Z,18.23
2023-03-02T18:44:28.344Z,19.53
2023-03-02T18:46:55.407Z,18.47
2023-03-02T18:49:22.043Z,18.17
2023-03-02T18:51:48.693Z,17.17
2023-03-02T18:54:15.812Z,16.33
2023-03-02T18:56:42.497Z,15.03
2023-03-02T18:59:09.688Z,12.03
2023-03-02T19:01:36.214Z,12.67
2023-03-02T19:04:04.934Z,12.00
2023-03-02T19:06:33.143Z,12.73
2023-03-02T19:08:59.677Z,11.73
2023-03-02T19:11:26.261Z,11.93
2023-03-02T19:13:52.773Z,12.60
2023-03-02T19:16:19.336Z,11.97
2023-03-02T19:18:45.944Z,12.17
2023-03-02T19:21:12.708Z,12.60
2023-03-02T19:23:39.686Z,12.70
2023-03-02T19:26:07.728Z,12.27
2023-03-02T19:28:34.978Z,13.67
2023-03-02T19:31:08.823Z,14.33
2023-03-02T19:33:36.042Z,14.07
2023-03-02T19:36:02.792Z,15.07
2023-03-02T19:38:29.777Z,15.10
2023-03-02T19:41:00.556Z,14.03
2023-03-02T19:43:27.636Z,15.33
2023-03-02T19:45:54.747Z,15.27
2023-03-02T19:48:21.716Z,14.43
2023-03-02T19:50:48.617Z,13.80
2023-03-02T19:53:17.113Z,13.37
2023-03-02T19:55:44.682Z,13.87
2023-03-02T19:58:16.947Z,16.20
2023-03-02T20:00:44.358Z,16.43
2023-03-02T20:03:10.950Z,16.17
2023-03-02T20:05:38.209Z,14.77
2023-03-02T20:08:05.858Z,13.63
2023-03-02T20:10:42.198Z,19.03
2023-03-02T20:13:09.178Z,20.33
2023-03-02T20:15:38.650Z,20.33
2023-03-02T20:18:08.377Z,19.87
2023-03-02T20:20:35.547Z,19.77
2023-03-02T20:23:02.076Z,19.90
2023-03-02T20:25:28.954Z,20.33
2023-03-02T20:27:57.090Z,20.93
2023-03-02T20:30:31.373Z,22.10
2023-03-02T20:32:58.813Z,20.90
2023-03-02T20:35:26.541Z,20.33
2023-03-02T20:37:54.961Z,21.63
2023-03-02T20:40:23.173Z,21.13
2023-03-02T20:42:49.707Z,20.73
2023-03-02T20:45:16.428Z,18.87
2023-03-02T20:47:44.000Z,19.93
2023-03-02T20:50:15.217Z,22.50
2023-03-02T20:52:41.834Z,19.50
2023-03-02T20:55:08.881Z,18.53
2023-03-02T20:57:35.455Z,17.80
2023-03-02T21:00:02.478Z,17.57
2023-03-02T21:02:28.931Z,17.03
2023-03-02T21:04:55.435Z,17.20
2023-03-02T21:07:21.956Z,16.60
2023-03-02T21:09:48.456Z,15.67
2023-03-02T21:12:15.116Z,14.57
2023-03-02T21:14:41.655Z,14.20
2023-03-02T21:17:09.017Z,12.67
2023-03-02T21:19:35.688Z,13.50
2023-03-02T21:22:02.613Z,13.30
2023-03-02T21:24:29.276Z,15.87
2023-03-02T21:26:55.822Z,15.83
2023-03-02T21:29:24.536Z,19.97
2023-03-02T21:31:51.100Z,20.23
2023-03-02T21:34:18.932Z,21.87
2023-03-02T21:36:46.054Z,24.60
2023-03-02T21:39:14.024Z,25.97
2023-03-02T21:41:40.634Z,25.53
2023-03-02T21:44:07.412Z,24.43
2023-03-02T21:46:35.833Z,24.87
2023-03-02T21:49:02.481Z,23.43
2023-03-02T21:51:29.308Z,21.47
2023-03-02T21:53:55.784Z,19.93
2023-03-02T21:56:25.087Z,19.47
2023-03-02T21:58:54.097Z,17.77
2023-03-02T22:01:21.218Z,16.97
2023-03-02T22:03:48.014Z,17.10
2023-03-02T22:06:20.349Z,17.33
2023-03-02T22:08:47.011Z,17.07
2023-03-02T22:11:21.581Z,17.23
2023-03-02T22:13:52.959Z,17.63
2023-03-02T22:16:24.216Z,20.13
2023-03-02T22:18:57.521Z,19.53
2023-03-02T22:21:36.874Z,18.67
2023-03-02T22:24:09.364Z,19.10
2023-03-02T22:26:47.104Z,18.73
2023-03-02T22:29:16.758Z,19.80
2023-03-02T22:31:47.458Z,21.50
2023-03-02T22:34:22.164Z,20.37
2023-03-02T22:36:48.741Z,19.30
2023-03-02T22:39:23.048Z,18.57
2023-03-02T22:41:50.096Z,18.73
2023-03-02T22:44:16.648Z,16.57
2023-03-02T22:46:43.318Z,15.70
2023-03-02T22:49:17.332Z,14.73
2023-03-02T22:51:44.906Z,14.50
2023-03-02T22:54:21.535Z,12.67
2023-03-02T22:56:52.834Z,14.50
2023-03-02T22:59:25.256Z,13.40
2023-03-02T23:01:54.196Z,12.77
2023-03-02T23:04:30.610Z,12.80
2023-03-02T23:07:02.887Z,12.87
2023-03-02T23:09:32.388Z,12.23
2023-03-02T23:12:02.336Z,11.80
2023-03-02T23:14:41.684Z,12.50
2023-03-02T23:17:13.358Z,11.13
2023-03-02T23:19:40.320Z,11.27
2023-03-02T23:22:07.060Z,10.50
2023-03-02T23:24:33.614Z,10.60
2023-03-02T23:27:00.123Z,11.07
2023-03-02T23:29:26.684Z,11.77
2023-03-02T23:31:53.448Z,12.57
2023-03-02T23:34:20.423Z,12.93
2023-03-02T23:36:46.957Z,13.23
2023-03-02T23:39:13.461Z,11.97
2023-03-02T23:41:40.019Z,12.37
2023-03-02T23:44:07.185Z,13.23
2023-03-02T23:46:33.754Z,13.50
2023-03-02T23:49:01.146Z,13.53
2023-03-02T23:51:27.746Z,13.70
2023-03-02T23:53:54.830Z,12.70
2023-03-02T23:56:22.020Z,12.90
2023-03-02T23:58:48.651Z,13.13
